Time;durP1;ratioP1;P1;durP2;ratioP2;P2;SDS_P1;SDS_P2;PMS_P1;PMS_P2;Temp;Humidity;BMP_temperature;BMP_pressure;BME280_temperature;BME280_humidity;BME280_pressure;Samples;Min_cycle;Max_cycle;Signal;HPM_P1;HPM_P2
2022/07/27 00:00:59;;;;;;;14.30;3.60;;;;;;;;;;5031506;28;20033;-68
2022/07/27 00:03:25;;;;;;;13.77;3.40;;;;;;;;;;5035919;28;20021;-68
2022/07/27 00:05:52;;;;;;;13.13;2.72;;;;;;;;;;5029367;28;20032;-67
2022/07/27 00:08:19;;;;;;;13.25;3.60;;;;;;;;;;5027922;28;20136;-68
2022/07/27 00:10:45;;;;;;;11.82;3.25;;;;;;;;;;5028131;28;20058;-67
2022/07/27 00:13:12;;;;;;;12.90;3.42;;;;;;;;;;5025468;28;20089;-67
2022/07/27 00:15:38;;;;;;;11.85;3.42;;;;;;;;;;5025394;28;20033;-67
2022/07/27 00:18:04;;;;;;;13.55;3.20;;;;;;;;;;5023240;28;20571;-67
2022/07/27 00:20:31;;;;;;;12.50;3.67;;;;;;;;;;5026980;28;20044;-68
2022/07/27 00:22:58;;;;;;;13.85;3.85;;;;;;;;;;5028716;28;20051;-68
2022/07/27 00:25:27;;;;;;;12.85;3.45;;;;;;;;;;5011206;28;20287;-66
2022/07/27 00:27:57;;;;;;;11.32;3.00;;;;;;;;;;5013288;28;20029;-67
2022/07/27 00:30:24;;;;;;;11.27;3.30;;;;;;;;;;5027707;28;20029;-68
2022/07/27 00:32:50;;;;;;;15.70;3.33;;;;;;;;;;5011628;28;20029;-67
2022/07/27 00:35:17;;;;;;;13.57;3.20;;;;;;;;;;5024130;28;20029;-67
2022/07/27 00:37:43;;;;;;;13.35;2.90;;;;;;;;;;5028438;28;20056;-67
2022/07/27 00:40:09;;;;;;;12.70;2.97;;;;;;;;;;5003607;28;20740;-67
2022/07/27 00:42:36;;;;;;;14.18;3.35;;;;;;;;;;5007940;28;20056;-67
2022/07/27 00:45:02;;;;;;;10.80;2.90;;;;;;;;;;5024855;28;20025;-67
2022/07/27 00:47:28;;;;;;;12.50;2.80;;;;;;;;;;5025475;28;20132;-67
2022/07/27 00:49:54;;;;;;;10.20;2.95;;;;;;;;;;5026280;28;20057;-67
2022/07/27 00:52:21;;;;;;;9.57;2.60;;;;;;;;;;5029661;28;20037;-67
2022/07/27 00:54:47;;;;;;;11.23;3.20;;;;;;;;;;5030633;28;20480;-67
2022/07/27 00:57:13;;;;;;;14.93;3.50;;;;;;;;;;5029172;28;20040;-68
2022/07/27 00:59:40;;;;;;;11.77;3.08;;;;;;;;;;5029983;28;20348;-68
2022/07/27 01:02:06;;;;;;;11.57;3.20;;;;;;;;;;5030272;28;20024;-68
2022/07/27 01:04:32;;;;;;;12.20;3.10;;;;;;;;;;5031169;28;20112;-68
2022/07/27 01:06:59;;;;;;;13.07;3.30;;;;;;;;;;5029593;28;20898;-68
2022/07/27 01:12:13;;;;;;;14.80;3.08;;;;;;;;;;5028920;28;20027;-68
2022/07/27 01:14:39;;;;;;;16.38;3.55;;;;;;;;;;5033943;28;20040;-67
2022/07/27 01:17:05;;;;;;;13.88;3.53;;;;;;;;;;5029117;28;20036;-67
2022/07/27 01:19:32;;;;;;;12.65;2.88;;;;;;;;;;5034492;28;20094;-67
2022/07/27 01:21:58;;;;;;;12.02;2.92;;;;;;;;;;5032156;28;20029;-67
2022/07/27 01:24:24;;;;;;;11.73;3.13;;;;;;;;;;5032352;28;20106;-68
2022/07/27 01:26:50;;;;;;;12.90;3.00;;;;;;;;;;5029500;28;20037;-68
2022/07/27 01:29:17;;;;;;;11.80;2.83;;;;;;;;;;5026392;28;20057;-68
2022/07/27 01:31:43;;;;;;;12.63;2.92;;;;;;;;;;5035763;28;20419;-69
2022/07/27 01:34:09;;;;;;;14.05;2.90;;;;;;;;;;5031115;28;20021;-68
2022/07/27 01:36:35;;;;;;;14.18;3.10;;;;;;;;;;5033069;28;20095;-68
2022/07/27 01:39:01;;;;;;;12.88;3.28;;;;;;;;;;5010423;28;20032;-68
2022/07/27 01:41:27;;;;;;;13.45;3.05;;;;;;;;;;5033205;28;20108;-67
2022/07/27 01:43:54;;;;;;;10.68;2.78;;;;;;;;;;5014108;28;20444;-68
2022/07/27 01:46:20;;;;;;;13.80;3.20;;;;;;;;;;5034557;28;20472;-68
2022/07/27 01:48:46;;;;;;;11.25;2.90;;;;;;;;;;5034864;28;20599;-68
2022/07/27 01:51:12;;;;;;;13.68;3.30;;;;;;;;;;5013089;28;20568;-69
2022/07/27 01:53:38;;;;;;;11.30;2.90;;;;;;;;;;5033357;28;20028;-68
2022/07/27 01:56:09;;;;;;;11.95;3.08;;;;;;;;;;5029354;28;20036;-69
2022/07/27 01:58:36;;;;;;;12.35;2.70;;;;;;;;;;5029805;28;20057;-69
2022/07/27 02:01:02;;;;;;;14.63;3.08;;;;;;;;;;5031327;28;20434;-68
2022/07/27 02:03:28;;;;;;;12.35;3.08;;;;;;;;;;5028013;28;20204;-68
2022/07/27 02:05:54;;;;;;;12.63;3.30;;;;;;;;;;5030950;28;20560;-68
2022/07/27 02:08:20;;;;;;;13.07;3.67;;;;;;;;;;5022967;28;20024;-68
2022/07/27 02:13:31;;;;;;;12.88;3.53;;;;;;;;;;5029172;28;20071;-69
2022/07/27 02:15:57;;;;;;;13.05;3.65;;;;;;;;;;5029584;28;20043;-69
2022/07/27 02:18:23;;;;;;;10.05;2.70;;;;;;;;;;5027828;28;20087;-69
2022/07/27 02:20:49;;;;;;;13.23;3.33;;;;;;;;;;5029245;28;20272;-69
2022/07/27 02:23:15;;;;;;;11.65;3.13;;;;;;;;;;5010501;28;20037;-68
2022/07/27 02:25:42;;;;;;;10.85;3.10;;;;;;;;;;5009049;28;20036;-68
2022/07/27 02:28:08;;;;;;;12.73;2.78;;;;;;;;;;5026574;28;20063;-69
2022/07/27 02:30:34;;;;;;;10.73;3.08;;;;;;;;;;5010832;28;20520;-69
2022/07/27 02:33:00;;;;;;;10.10;2.95;;;;;;;;;;5025762;28;20025;-69
2022/07/27 02:35:26;;;;;;;9.18;2.70;;;;;;;;;;5027780;28;20072;-68
2022/07/27 02:37:53;;;;;;;12.23;2.80;;;;;;;;;;5026786;28;20350;-68
2022/07/27 02:40:19;;;;;;;10.88;2.90;;;;;;;;;;5025036;28;20028;-68
2022/07/27 02:42:46;;;;;;;10.00;2.95;;;;;;;;;;5027199;28;20094;-69
2022/07/27 02:45:12;;;;;;;13.40;2.88;;;;;;;;;;5028763;28;23217;-69
2022/07/27 02:47:38;;;;;;;11.68;2.92;;;;;;;;;;5026295;28;20026;-68
2022/07/27 02:50:05;;;;;;;12.32;3.10;;;;;;;;;;5024189;28;20056;-67
2022/07/27 02:52:32;;;;;;;12.93;2.90;;;;;;;;;;5025709;28;20035;-70
2022/07/27 02:54:58;;;;;;;17.48;3.13;;;;;;;;;;5021700;28;20041;-68
2022/07/27 02:57:25;;;;;;;13.75;3.03;;;;;;;;;;5026176;28;20028;-69
2022/07/27 02:59:52;;;;;;;10.95;2.80;;;;;;;;;;5009853;28;20383;-69
2022/07/27 03:02:18;;;;;;;10.07;2.70;;;;;;;;;;5013982;28;20560;-69
2022/07/27 03:04:44;;;;;;;13.73;3.30;;;;;;;;;;5032109;28;20025;-69
2022/07/27 03:07:10;;;;;;;13.88;2.85;;;;;;;;;;5029734;28;20032;-69
2022/07/27 03:09:36;;;;;;;10.88;2.40;;;;;;;;;;5031489;28;20084;-69
2022/07/27 03:12:03;;;;;;;13.38;3.05;;;;;;;;;;5012501;28;20115;-70
2022/07/27 03:14:29;;;;;;;10.93;2.80;;;;;;;;;;5034260;28;20041;-67
2022/07/27 03:16:55;;;;;;;11.07;2.72;;;;;;;;;;5014578;28;20028;-67
2022/07/27 03:19:21;;;;;;;11.15;2.75;;;;;;;;;;5032828;28;20574;-68
2022/07/27 03:21:47;;;;;;;15.15;2.78;;;;;;;;;;5030065;28;20037;-69
2022/07/27 03:24:13;;;;;;;11.63;3.05;;;;;;;;;;5012600;28;20035;-68
2022/07/27 03:26:40;;;;;;;11.48;2.58;;;;;;;;;;5029330;28;20549;-68
2022/07/27 03:29:06;;;;;;;10.05;2.78;;;;;;;;;;5019446;28;20029;-68
2022/07/27 03:31:32;;;;;;;13.95;2.90;;;;;;;;;;5030736;28;20502;-69
2022/07/27 03:33:58;;;;;;;14.48;3.42;;;;;;;;;;5032215;28;20512;-68
2022/07/27 03:36:24;;;;;;;14.10;3.10;;;;;;;;;;5017520;28;20536;-69
2022/07/27 03:38:50;;;;;;;12.60;3.30;;;;;;;;;;5031067;28;20045;-68
2022/07/27 03:41:16;;;;;;;12.45;3.50;;;;;;;;;;5013657;28;20383;-68
2022/07/27 03:43:43;;;;;;;13.15;3.50;;;;;;;;;;5032402;28;20286;-68
2022/07/27 03:46:11;;;;;;;10.65;3.30;;;;;;;;;;5014028;28;20113;-68
2022/07/27 03:48:37;;;;;;;11.35;3.00;;;;;;;;;;5034494;28;20048;-69
2022/07/27 03:51:03;;;;;;;10.80;2.78;;;;;;;;;;5027814;28;20570;-69
2022/07/27 03:53:29;;;;;;;13.52;3.03;;;;;;;;;;5047091;28;20244;-69
2022/07/27 03:55:55;;;;;;;11.80;2.63;;;;;;;;;;5029928;28;20036;-68
2022/07/27 03:58:22;;;;;;;9.68;2.88;;;;;;;;;;5036387;28;20049;-69
2022/07/27 04:00:48;;;;;;;14.55;3.22;;;;;;;;;;5034440;28;20021;-69
2022/07/27 04:03:14;;;;;;;13.63;3.20;;;;;;;;;;5035381;28;20032;-70
2022/07/27 04:05:41;;;;;;;10.45;3.00;;;;;;;;;;5039380;28;20541;-69
2022/07/27 04:08:07;;;;;;;11.10;2.65;;;;;;;;;;5037450;28;20462;-70
2022/07/27 04:10:33;;;;;;;11.75;3.20;;;;;;;;;;5038848;28;20511;-69
2022/07/27 04:12:59;;;;;;;12.90;3.00;;;;;;;;;;5028254;28;20486;-69
2022/07/27 04:15:25;;;;;;;14.45;3.15;;;;;;;;;;5031695;28;20029;-69
2022/07/27 04:17:52;;;;;;;11.75;2.95;;;;;;;;;;5027932;28;20362;-69
2022/07/27 04:20:18;;;;;;;14.07;2.80;;;;;;;;;;5026458;28;20043;-69
2022/07/27 04:22:44;;;;;;;14.45;2.95;;;;;;;;;;5025414;28;20033;-69
2022/07/27 04:25:10;;;;;;;13.27;3.10;;;;;;;;;;5025029;28;20167;-68
2022/07/27 04:27:37;;;;;;;11.23;3.10;;;;;;;;;;5028409;28;20161;-69
2022/07/27 04:30:04;;;;;;;13.27;2.83;;;;;;;;;;5027081;28;20592;-69
2022/07/27 04:32:30;;;;;;;10.07;2.58;;;;;;;;;;5028673;28;20044;-69
2022/07/27 04:34:56;;;;;;;11.23;2.97;;;;;;;;;;5025034;28;20029;-68
2022/07/27 04:37:22;;;;;;;12.70;2.70;;;;;;;;;;5026763;28;20033;-69
2022/07/27 04:39:48;;;;;;;11.10;2.42;;;;;;;;;;5027230;28;20477;-69
2022/07/27 04:42:14;;;;;;;13.70;3.17;;;;;;;;;;5022263;28;20759;-69
2022/07/27 04:44:40;;;;;;;13.23;3.45;;;;;;;;;;5041116;28;20029;-70
2022/07/27 04:47:07;;;;;;;15.02;2.90;;;;;;;;;;5021667;28;20040;-69
2022/07/27 04:49:33;;;;;;;17.40;3.45;;;;;;;;;;5024993;28;20095;-69
2022/07/27 04:51:59;;;;;;;11.68;2.78;;;;;;;;;;5021746;28;20364;-70
2022/07/27 04:54:25;;;;;;;11.73;3.05;;;;;;;;;;5024756;28;20040;-70
2022/07/27 04:56:51;;;;;;;12.27;2.83;;;;;;;;;;5011508;28;20499;-70
2022/07/27 04:59:17;;;;;;;11.95;3.08;;;;;;;;;;5024103;28;20037;-69
2022/07/27 05:01:43;;;;;;;13.98;3.42;;;;;;;;;;5032971;28;20029;-69
2022/07/27 05:04:09;;;;;;;14.30;3.47;;;;;;;;;;5033295;28;20447;-70
2022/07/27 05:06:35;;;;;;;13.95;3.25;;;;;;;;;;5032172;28;20044;-70
2022/07/27 05:09:02;;;;;;;13.73;3.30;;;;;;;;;;5026398;28;20034;-70
2022/07/27 05:11:28;;;;;;;12.45;3.08;;;;;;;;;;5027330;28;20108;-69
2022/07/27 05:13:54;;;;;;;11.77;3.05;;;;;;;;;;5029315;28;20087;-69
2022/07/27 05:16:20;;;;;;;12.82;3.00;;;;;;;;;;5013245;28;20114;-69
2022/07/27 05:18:46;;;;;;;13.48;3.15;;;;;;;;;;5031839;28;20141;-70
2022/07/27 05:21:12;;;;;;;11.27;3.10;;;;;;;;;;5030674;28;20112;-69
2022/07/27 05:23:38;;;;;;;13.93;3.00;;;;;;;;;;5029331;28;20025;-69
2022/07/27 05:26:04;;;;;;;12.70;3.05;;;;;;;;;;5025511;28;20028;-70
2022/07/27 05:28:31;;;;;;;14.18;3.20;;;;;;;;;;5028471;28;20068;-70
2022/07/27 05:30:57;;;;;;;13.82;3.53;;;;;;;;;;5027468;28;20482;-69
2022/07/27 05:33:24;;;;;;;12.90;3.17;;;;;;;;;;5026760;28;20496;-70
2022/07/27 05:35:50;;;;;;;19.95;2.80;;;;;;;;;;5005405;28;20043;-69
2022/07/27 05:38:16;;;;;;;14.35;3.58;;;;;;;;;;5021687;28;20060;-69
2022/07/27 05:40:46;;;;;;;15.90;3.35;;;;;;;;;;5004290;28;20030;-70
2022/07/27 05:43:12;;;;;;;15.40;3.47;;;;;;;;;;5006504;28;20988;-70
2022/07/27 05:45:38;;;;;;;14.32;3.30;;;;;;;;;;5022398;28;20490;-70
2022/07/27 05:48:05;;;;;;;13.07;4.05;;;;;;;;;;5007140;28;20136;-69
2022/07/27 05:50:31;;;;;;;11.93;3.80;;;;;;;;;;5023458;28;20218;-69
2022/07/27 05:52:59;;;;;;;11.65;2.90;;;;;;;;;;5018640;28;20048;-70
2022/07/27 05:55:25;;;;;;;12.90;3.35;;;;;;;;;;5022969;28;20012;-69
2022/07/27 05:57:51;;;;;;;10.93;2.97;;;;;;;;;;5021610;28;20017;-70
2022/07/27 06:00:17;;;;;;;12.50;2.95;;;;;;;;;;5021533;28;20047;-70
2022/07/27 06:02:44;;;;;;;11.93;3.47;;;;;;;;;;5027941;28;20031;-69
2022/07/27 06:05:10;;;;;;;13.75;2.92;;;;;;;;;;5024533;28;20115;-69
2022/07/27 06:10:20;;;;;;;15.00;4.20;;;;;;;;;;5019919;28;20048;-70
2022/07/27 06:12:47;;;;;;;14.13;3.72;;;;;;;;;;4999555;28;20037;-70
2022/07/27 06:15:13;;;;;;;13.80;3.17;;;;;;;;;;5008007;28;20033;-70
2022/07/27 06:17:40;;;;;;;15.25;3.58;;;;;;;;;;5011823;28;20368;-69
2022/07/27 06:20:07;;;;;;;10.95;2.97;;;;;;;;;;5020989;28;20572;-68
2022/07/27 06:22:33;;;;;;;11.20;3.40;;;;;;;;;;5010327;28;20040;-68
2022/07/27 06:24:59;;;;;;;10.25;2.80;;;;;;;;;;5011387;28;20091;-69
2022/07/27 06:27:25;;;;;;;12.75;2.88;;;;;;;;;;5024405;28;20120;-70
2022/07/27 06:29:51;;;;;;;12.15;3.38;;;;;;;;;;5024734;28;20459;-69
2022/07/27 06:32:17;;;;;;;11.15;2.88;;;;;;;;;;5022941;28;20238;-69
2022/07/27 06:34:43;;;;;;;13.40;3.30;;;;;;;;;;5024189;28;20679;-70
2022/07/27 06:37:09;;;;;;;11.48;3.15;;;;;;;;;;5025575;28;20029;-69
2022/07/27 06:39:36;;;;;;;9.20;2.78;;;;;;;;;;5024828;28;20103;-69
2022/07/27 06:42:02;;;;;;;12.02;3.33;;;;;;;;;;5023542;28;20025;-70
2022/07/27 06:44:28;;;;;;;16.33;3.80;;;;;;;;;;5011167;28;20060;-70
2022/07/27 06:46:54;;;;;;;13.85;3.60;;;;;;;;;;5024982;28;20025;-69
2022/07/27 06:49:20;;;;;;;15.20;3.58;;;;;;;;;;5028856;28;20054;-70
2022/07/27 06:51:46;;;;;;;13.45;3.30;;;;;;;;;;5027898;28;20057;-69
2022/07/27 06:54:12;;;;;;;13.40;3.00;;;;;;;;;;5028066;28;20848;-67
2022/07/27 06:56:39;;;;;;;12.85;3.30;;;;;;;;;;5029494;28;20037;-69
2022/07/27 06:59:05;;;;;;;12.20;2.75;;;;;;;;;;5026393;28;20033;-70
2022/07/27 07:01:31;;;;;;;13.32;3.60;;;;;;;;;;5026363;28;20398;-71
2022/07/27 07:03:58;;;;;;;11.02;3.33;;;;;;;;;;5021248;28;20032;-69
2022/07/27 07:06:25;;;;;;;14.10;3.50;;;;;;;;;;5027345;28;20029;-69
2022/07/27 07:08:51;;;;;;;11.23;3.28;;;;;;;;;;5032842;28;20035;-68
2022/07/27 07:11:17;;;;;;;12.43;3.20;;;;;;;;;;5029556;28;20033;-68
2022/07/27 07:13:43;;;;;;;13.85;3.47;;;;;;;;;;5030286;28;20036;-68
2022/07/27 07:16:09;;;;;;;11.95;3.80;;;;;;;;;;5020432;28;20588;-70
2022/07/27 07:18:36;;;;;;;12.52;3.70;;;;;;;;;;5028275;28;20042;-68
2022/07/27 07:21:02;;;;;;;11.85;3.20;;;;;;;;;;5023466;28;20032;-68
2022/07/27 07:23:28;;;;;;;14.65;3.67;;;;;;;;;;5026088;28;20551;-68
2022/07/27 07:25:54;;;;;;;11.20;3.17;;;;;;;;;;5025093;28;20036;-69
2022/07/27 07:28:21;;;;;;;14.98;3.67;;;;;;;;;;5027972;28;20642;-68
2022/07/27 07:30:47;;;;;;;14.38;3.13;;;;;;;;;;5032276;28;20388;-68
2022/07/27 07:33:13;;;;;;;10.48;2.92;;;;;;;;;;5025465;28;20037;-71
2022/07/27 07:35:40;;;;;;;9.98;2.90;;;;;;;;;;5026898;28;20020;-70
2022/07/27 07:38:06;;;;;;;14.27;3.17;;;;;;;;;;5023973;28;20496;-69
2022/07/27 07:40:32;;;;;;;14.13;3.20;;;;;;;;;;5023944;28;20032;-69
2022/07/27 07:43:03;;;;;;;12.35;3.50;;;;;;;;;;5026215;28;20053;-70
2022/07/27 07:45:30;;;;;;;10.45;3.03;;;;;;;;;;5026705;28;20094;-73
2022/07/27 07:47:57;;;;;;;12.20;3.53;;;;;;;;;;5025008;28;20021;-70
2022/07/27 07:50:23;;;;;;;13.57;3.45;;;;;;;;;;5045981;28;20090;-69
2022/07/27 07:52:53;;;;;;;13.48;3.92;;;;;;;;;;5030796;28;20664;-69
2022/07/27 07:55:21;;;;;;;11.57;3.47;;;;;;;;;;5047671;28;20029;-70
2022/07/27 07:57:47;;;;;;;12.40;3.78;;;;;;;;;;5031622;28;20354;-70
2022/07/27 08:00:14;;;;;;;11.25;3.53;;;;;;;;;;5034934;28;20044;-68
2022/07/27 08:02:44;;;;;;;13.68;3.45;;;;;;;;;;5028618;28;20021;-70
2022/07/27 08:05:10;;;;;;;13.23;3.65;;;;;;;;;;5027688;28;20040;-68
2022/07/27 08:07:36;;;;;;;12.70;3.70;;;;;;;;;;5030622;28;20040;-70
2022/07/27 08:10:03;;;;;;;13.20;3.38;;;;;;;;;;5033408;28;20505;-70
2022/07/27 08:12:29;;;;;;;15.98;3.58;;;;;;;;;;5032367;28;20409;-70
2022/07/27 08:14:55;;;;;;;12.00;3.42;;;;;;;;;;5014773;28;20041;-69
2022/07/27 08:17:21;;;;;;;12.18;3.45;;;;;;;;;;5032150;28;20393;-70
2022/07/27 08:19:48;;;;;;;15.95;3.63;;;;;;;;;;5031913;28;20055;-71
2022/07/27 08:22:14;;;;;;;14.02;3.47;;;;;;;;;;5032698;28;20138;-69
2022/07/27 08:24:40;;;;;;;14.50;3.80;;;;;;;;;;5033571;28;20021;-68
2022/07/27 08:27:06;;;;;;;11.63;3.22;;;;;;;;;;5030583;28;20418;-69
2022/07/27 08:29:32;;;;;;;13.90;3.53;;;;;;;;;;5033385;28;20060;-70
2022/07/27 08:31:58;;;;;;;13.70;3.47;;;;;;;;;;5032388;28;20432;-68
2022/07/27 08:34:25;;;;;;;12.57;3.65;;;;;;;;;;5031593;28;20529;-68
2022/07/27 08:36:51;;;;;;;10.93;2.85;;;;;;;;;;5031159;28;20568;-69
2022/07/27 08:39:17;;;;;;;11.30;3.22;;;;;;;;;;5026548;28;20032;-69
2022/07/27 08:41:43;;;;;;;14.30;3.38;;;;;;;;;;5029144;28;20465;-71
2022/07/27 08:44:13;;;;;;;13.48;3.60;;;;;;;;;;5029236;28;20040;-71
2022/07/27 08:46:39;;;;;;;14.15;3.70;;;;;;;;;;5029958;28;20032;-71
2022/07/27 08:49:06;;;;;;;13.82;3.50;;;;;;;;;;5031467;28;20416;-71
2022/07/27 08:51:33;;;;;;;13.70;3.30;;;;;;;;;;5031499;28;20443;-71
2022/07/27 08:54:00;;;;;;;15.45;3.15;;;;;;;;;;5029749;28;20036;-72
2022/07/27 08:56:26;;;;;;;15.07;3.92;;;;;;;;;;5013137;28;20024;-71
2022/07/27 08:58:53;;;;;;;16.13;4.05;;;;;;;;;;5030971;28;20036;-70
2022/07/27 09:01:19;;;;;;;11.55;3.50;;;;;;;;;;5012395;28;20583;-70
2022/07/27 09:03:45;;;;;;;11.32;3.13;;;;;;;;;;5029785;28;20059;-71
2022/07/27 09:06:11;;;;;;;12.52;3.55;;;;;;;;;;5029443;28;20049;-70
2022/07/27 09:08:40;;;;;;;14.40;3.45;;;;;;;;;;5031959;28;20128;-70
2022/07/27 09:11:24;;;;;;;12.15;3.13;;;;;;;;;;5027483;28;20029;-71
2022/07/27 09:14:00;;;;;;;10.55;3.03;;;;;;;;;;5026579;28;20037;-70
2022/07/27 09:16:30;;;;;;;10.90;3.53;;;;;;;;;;5028366;28;20483;-70
2022/07/27 09:19:00;;;;;;;10.88;3.15;;;;;;;;;;5009589;28;20025;-71
2022/07/27 09:21:27;;;;;;;11.48;3.50;;;;;;;;;;5014275;28;20128;-71
2022/07/27 09:24:05;;;;;;;13.13;3.38;;;;;;;;;;5028991;28;20085;-70
2022/07/27 09:26:31;;;;;;;11.88;3.30;;;;;;;;;;5030835;28;20021;-70
2022/07/27 09:29:16;;;;;;;12.75;3.42;;;;;;;;;;5028096;28;20129;-70
2022/07/27 09:31:44;;;;;;;10.32;3.53;;;;;;;;;;5030795;28;20033;-70
2022/07/27 09:34:10;;;;;;;15.05;3.40;;;;;;;;;;5027557;28;20485;-70
2022/07/27 09:36:53;;;;;;;11.13;3.53;;;;;;;;;;5015481;28;20117;-70
2022/07/27 09:39:21;;;;;;;12.30;3.25;;;;;;;;;;5027337;28;20040;-70
2022/07/27 09:41:47;;;;;;;12.32;3.42;;;;;;;;;;5029698;28;20122;-70
2022/07/27 09:44:14;;;;;;;11.10;3.25;;;;;;;;;;5025311;28;20079;-70
2022/07/27 09:46:41;;;;;;;10.43;3.53;;;;;;;;;;5028000;28;20030;-70
2022/07/27 09:49:27;;;;;;;13.57;3.22;;;;;;;;;;5026124;28;20033;-69
2022/07/27 09:51:53;;;;;;;10.10;3.83;;;;;;;;;;5027730;28;20866;-70
2022/07/27 09:54:20;;;;;;;12.15;3.45;;;;;;;;;;5030593;28;20275;-70
2022/07/27 09:56:57;;;;;;;11.48;3.50;;;;;;;;;;5012496;28;20037;-71
2022/07/27 09:59:23;;;;;;;9.20;3.22;;;;;;;;;;5031294;28;20033;-71
2022/07/27 10:01:49;;;;;;;11.95;3.03;;;;;;;;;;5032421;28;20436;-70
2022/07/27 10:04:15;;;;;;;11.18;3.55;;;;;;;;;;5028078;28;20021;-71
2022/07/27 10:06:41;;;;;;;9.77;3.50;;;;;;;;;;5031173;28;20029;-70
2022/07/27 10:09:07;;;;;;;11.07;3.38;;;;;;;;;;5011101;28;20327;-71
2022/07/27 10:11:34;;;;;;;13.82;3.65;;;;;;;;;;5028662;28;20036;-68
2022/07/27 10:14:00;;;;;;;11.07;3.33;;;;;;;;;;5026980;28;20040;-68
2022/07/27 10:16:27;;;;;;;10.70;3.10;;;;;;;;;;5025882;28;20116;-68
2022/07/27 10:19:00;;;;;;;15.05;3.50;;;;;;;;;;5026609;28;20499;-68
2022/07/27 10:21:26;;;;;;;10.88;3.67;;;;;;;;;;5010276;28;20033;-68
2022/07/27 10:23:57;;;;;;;13.80;4.03;;;;;;;;;;5007335;28;20389;-64
2022/07/27 10:26:23;;;;;;;11.80;3.28;;;;;;;;;;5028471;28;20081;-66
2022/07/27 10:28:57;;;;;;;11.73;3.38;;;;;;;;;;5027369;28;20033;-66
2022/07/27 10:31:27;;;;;;;10.95;3.47;;;;;;;;;;5026984;28;20036;-66
2022/07/27 10:33:54;;;;;;;12.75;3.63;;;;;;;;;;5026473;28;20116;-65
2022/07/27 10:36:23;;;;;;;13.82;3.83;;;;;;;;;;5026467;28;20058;-65
2022/07/27 10:38:50;;;;;;;11.45;3.13;;;;;;;;;;5026972;28;21631;-66
2022/07/27 10:41:24;;;;;;;9.52;3.20;;;;;;;;;;5024737;28;20090;-68
2022/07/27 10:44:10;;;;;;;10.30;3.45;;;;;;;;;;5010071;28;20580;-68
2022/07/27 10:46:37;;;;;;;16.95;3.92;;;;;;;;;;5009040;28;20888;-67
2022/07/27 10:49:19;;;;;;;12.23;3.65;;;;;;;;;;5026058;28;20600;-67
2022/07/27 10:51:45;;;;;;;11.70;3.55;;;;;;;;;;5024380;28;20048;-67
2022/07/27 10:54:26;;;;;;;9.77;3.20;;;;;;;;;;5024138;28;20480;-67
2022/07/27 10:56:54;;;;;;;9.80;3.00;;;;;;;;;;5028572;28;20498;-67
2022/07/27 10:59:38;;;;;;;12.50;3.42;;;;;;;;;;5027660;28;20037;-65
2022/07/27 11:02:05;;;;;;;12.75;3.10;;;;;;;;;;5025896;28;20403;-67
2022/07/27 11:04:32;;;;;;;12.65;3.17;;;;;;;;;;5026494;28;20029;-67
2022/07/27 11:06:59;;;;;;;11.88;3.50;;;;;;;;;;5023170;28;20078;-67
2022/07/27 11:09:39;;;;;;;9.13;3.20;;;;;;;;;;5026307;28;20033;-67
2022/07/27 11:12:06;;;;;;;9.63;3.10;;;;;;;;;;5025454;28;20038;-68
2022/07/27 11:14:52;;;;;;;12.18;3.13;;;;;;;;;;5027717;28;20028;-68
2022/07/27 11:17:29;;;;;;;9.00;2.95;;;;;;;;;;5025846;28;20760;-67
2022/07/27 11:19:57;;;;;;;12.55;3.38;;;;;;;;;;5025459;28;20032;-66
2022/07/27 11:22:33;;;;;;;11.35;2.63;;;;;;;;;;5029920;28;20041;-70
2022/07/27 11:25:00;;;;;;;13.30;3.22;;;;;;;;;;5032855;28;20104;-67
2022/07/27 11:27:27;;;;;;;12.15;2.88;;;;;;;;;;5034625;28;20364;-67
2022/07/27 11:29:53;;;;;;;14.98;3.35;;;;;;;;;;5032011;28;20049;-66
2022/07/27 11:32:19;;;;;;;13.02;3.00;;;;;;;;;;5033785;28;20536;-67
2022/07/27 11:34:46;;;;;;;13.48;2.70;;;;;;;;;;5032830;28;20025;-69
2022/07/27 11:37:13;;;;;;;13.23;3.20;;;;;;;;;;5030072;28;20313;-67
2022/07/27 11:39:39;;;;;;;9.38;2.40;;;;;;;;;;5033704;28;20092;-67
2022/07/27 11:42:07;;;;;;;9.13;2.63;;;;;;;;;;5030239;28;20033;-68
2022/07/27 11:44:37;;;;;;;9.93;2.50;;;;;;;;;;5031125;28;20020;-67
2022/07/27 11:47:03;;;;;;;15.45;2.95;;;;;;;;;;5028568;28;20025;-67
2022/07/27 11:49:30;;;;;;;9.98;2.67;;;;;;;;;;5032895;28;20032;-68
2022/07/27 11:52:01;;;;;;;11.48;3.00;;;;;;;;;;5030844;28;20051;-65
2022/07/27 11:54:27;;;;;;;9.63;2.47;;;;;;;;;;5030979;28;20064;-67
2022/07/27 11:56:55;;;;;;;12.27;2.65;;;;;;;;;;5031287;28;20029;-67
2022/07/27 11:59:22;;;;;;;13.50;3.03;;;;;;;;;;5032666;28;20048;-66
2022/07/27 12:01:50;;;;;;;10.18;2.60;;;;;;;;;;5031978;28;20064;-68
2022/07/27 12:04:26;;;;;;;15.05;3.88;;;;;;;;;;5030710;28;20562;-68
2022/07/27 12:06:58;;;;;;;14.90;3.50;;;;;;;;;;5034420;28;20067;-66
2022/07/27 12:09:24;;;;;;;10.23;3.35;;;;;;;;;;5033306;28;20032;-66
2022/07/27 12:11:55;;;;;;;11.68;2.97;;;;;;;;;;5032510;28;21491;-67
2022/07/27 12:14:28;;;;;;;10.18;2.97;;;;;;;;;;5015194;28;20109;-67
2022/07/27 12:17:06;;;;;;;12.25;3.22;;;;;;;;;;5028860;28;20025;-66
2022/07/27 12:19:32;;;;;;;11.98;2.63;;;;;;;;;;5031348;28;20906;-67
2022/07/27 12:21:59;;;;;;;12.98;2.95;;;;;;;;;;5030158;28;20033;-66
2022/07/27 12:24:36;;;;;;;11.50;2.78;;;;;;;;;;5032322;28;20062;-67
2022/07/27 12:27:07;;;;;;;11.65;2.55;;;;;;;;;;5010882;28;20127;-66
2022/07/27 12:29:33;;;;;;;10.95;2.92;;;;;;;;;;5031551;28;20266;-68
2022/07/27 12:32:03;;;;;;;12.70;2.50;;;;;;;;;;5030185;28;20102;-66
2022/07/27 12:34:33;;;;;;;10.02;2.05;;;;;;;;;;5013394;28;20144;-67
2022/07/27 12:37:00;;;;;;;11.20;2.58;;;;;;;;;;5031312;28;20118;-67
2022/07/27 12:39:27;;;;;;;12.98;3.03;;;;;;;;;;5033184;28;20594;-67
2022/07/27 12:42:05;;;;;;;10.60;2.45;;;;;;;;;;5029270;28;20040;-66
2022/07/27 12:44:35;;;;;;;10.18;2.60;;;;;;;;;;5031598;28;20028;-69
2022/07/27 12:47:39;;;;;;;9.95;2.50;;;;;;;;;;5028897;28;20025;-67
2022/07/27 12:50:05;;;;;;;13.43;2.55;;;;;;;;;;5030661;28;20036;-67
2022/07/27 12:52:32;;;;;;;9.85;2.40;;;;;;;;;;5029716;28;20170;-69
2022/07/27 12:54:58;;;;;;;9.90;2.20;;;;;;;;;;5028262;28;20036;-69
2022/07/27 12:57:24;;;;;;;11.05;2.58;;;;;;;;;;5029840;28;20037;-68
2022/07/27 12:59:50;;;;;;;10.40;2.78;;;;;;;;;;5028658;28;20070;-70
2022/07/27 13:02:16;;;;;;;11.40;3.10;;;;;;;;;;5028324;28;20021;-68
2022/07/27 13:04:43;;;;;;;8.88;2.47;;;;;;;;;;5028586;28;20111;-68
2022/07/27 13:07:09;;;;;;;10.85;2.55;;;;;;;;;;5006836;28;20029;-69
2022/07/27 13:09:35;;;;;;;12.20;2.60;;;;;;;;;;5011434;28;20041;-68
2022/07/27 13:12:02;;;;;;;8.77;2.35;;;;;;;;;;5004693;28;20033;-68
2022/07/27 13:14:28;;;;;;;8.63;2.50;;;;;;;;;;5022820;28;20404;-68
2022/07/27 13:16:54;;;;;;;12.10;2.95;;;;;;;;;;5022601;28;20063;-67
2022/07/27 13:19:20;;;;;;;11.25;2.30;;;;;;;;;;5022931;28;20099;-68
2022/07/27 13:21:47;;;;;;;12.05;2.70;;;;;;;;;;5021843;28;20424;-66
2022/07/27 13:24:14;;;;;;;9.60;2.10;;;;;;;;;;5002572;28;20029;-67
2022/07/27 13:26:40;;;;;;;9.05;2.45;;;;;;;;;;5005866;28;20031;-67
2022/07/27 13:29:06;;;;;;;10.75;2.58;;;;;;;;;;5020785;28;20315;-68
2022/07/27 13:31:33;;;;;;;11.98;2.70;;;;;;;;;;5010704;28;20103;-67
2022/07/27 13:33:59;;;;;;;8.88;2.78;;;;;;;;;;5019925;28;20130;-67
2022/07/27 13:36:25;;;;;;;11.27;2.53;;;;;;;;;;5023073;28;20103;-67
2022/07/27 13:38:51;;;;;;;8.15;2.30;;;;;;;;;;5024099;28;20123;-67
2022/07/27 13:41:17;;;;;;;11.35;2.85;;;;;;;;;;5023753;28;20034;-69
2022/07/27 13:43:44;;;;;;;9.15;2.60;;;;;;;;;;5007410;28;20524;-67
2022/07/27 13:46:10;;;;;;;10.90;2.50;;;;;;;;;;5020147;28;20032;-67
2022/07/27 13:48:36;;;;;;;10.60;2.60;;;;;;;;;;5020613;28;20045;-67
2022/07/27 13:51:03;;;;;;;10.15;2.75;;;;;;;;;;5022754;28;20099;-66
2022/07/27 13:53:29;;;;;;;10.55;2.38;;;;;;;;;;5025709;28;20029;-67
2022/07/27 13:55:55;;;;;;;21.77;2.95;;;;;;;;;;5022374;28;20036;-66
2022/07/27 13:58:22;;;;;;;12.75;2.65;;;;;;;;;;5026020;28;20641;-67
2022/07/27 14:00:50;;;;;;;12.57;2.50;;;;;;;;;;5024575;28;20025;-67
2022/07/27 14:03:16;;;;;;;10.18;2.72;;;;;;;;;;5007867;28;20060;-68
2022/07/27 14:05:42;;;;;;;8.77;2.70;;;;;;;;;;5004544;28;20559;-67
2022/07/27 14:08:08;;;;;;;10.50;2.45;;;;;;;;;;5017080;28;20186;-68
2022/07/27 14:10:41;;;;;;;8.00;2.30;;;;;;;;;;5018691;28;20148;-69
2022/07/27 14:13:08;;;;;;;10.93;2.80;;;;;;;;;;5015367;28;20037;-66
2022/07/27 14:15:36;;;;;;;11.50;3.20;;;;;;;;;;5016723;28;20550;-67
2022/07/27 14:18:03;;;;;;;11.85;2.50;;;;;;;;;;4994110;28;20033;-68
2022/07/27 14:20:29;;;;;;;12.68;3.00;;;;;;;;;;5016414;28;20151;-68
2022/07/27 14:22:55;;;;;;;10.40;2.63;;;;;;;;;;5002286;28;20037;-66
2022/07/27 14:25:21;;;;;;;11.07;2.38;;;;;;;;;;5001015;28;20033;-69
2022/07/27 14:27:47;;;;;;;11.20;2.80;;;;;;;;;;5004643;28;20056;-67
2022/07/27 14:30:13;;;;;;;10.82;2.70;;;;;;;;;;5017991;28;20163;-67
2022/07/27 14:32:39;;;;;;;8.60;2.35;;;;;;;;;;5024016;28;20025;-68
2022/07/27 14:35:06;;;;;;;10.23;2.33;;;;;;;;;;5014804;28;20040;-68
2022/07/27 14:37:35;;;;;;;8.55;2.33;;;;;;;;;;4999661;28;20378;-68
2022/07/27 14:40:02;;;;;;;9.60;2.75;;;;;;;;;;5014634;28;20033;-68